Aérodrome :
LOGIN :

S'inscrire | Disclaimer

   EN    FR    IT 

 










Légende :    VFR   VFR Marginal   IFR   IFR Intensif   IFR Très Intensif
Visi : 
Plafond : 
>= 8 km
>= 3000ft
5 à 8 km
1000 à 3000 ft
1500m à 5 km
500 à 1000 ft
800 à 1500m
200 à 500 ft
< 800m
< 200 ft
Symboles :   Orages  Brouillard  Fortes neiges  Fortes précipitations  Vent > 20 kt
SIGMETs :   Divers  Orages  Givrage  Turbulence  Onde Orograph.  Cendres Volcan.






- Altitude de l'aérodrome : 622 ft
- Code IATA : BRS


EGGD - Bristol Int.

DERNIER METAR :
  • 182050Z AUTO 26014KT 9999 FEW027 05/02 Q1016

METARs EXPIRÉS :
  • 182020Z AUTO 27020KT 9999 FEW023/// SCT048/// //////TCU 05/02 Q1016
  • 181950Z AUTO 27017KT 9999 SCT026 06/03 Q1016
  • 181920Z AUTO 26018KT 9999 SCT026 BKN031 BKN044 06/03 Q1015
  • 181850Z AUTO 24015KT 9999 BKN020/// //////CB 05/03 Q1015
  • 181820Z AUTO 25018KT 9999 FEW028/// //////CB 07/03 Q1015

TAF TAF EGGD
Valide du 18 à 18h jusqu'au 19 à 18h UTC


181657Z 1818/1918 25014KT 9999 SCT025
TEMPO 1818/1822 26018G28KT 6000 SHRA BKN014
PROB30
TEMPO 1818/1820 26024G38KT 3000 +SHRAGS BKN009 BKN020CB
BECMG 1907/1910 19010KT 8000 -RA BKN012
PROB40
TEMPO 1910/1915 4000 RA BKN007
BECMG 1915/1918 BKN020
ATIS : +44 1275 473 666



MET'MAP, la Météo Aéronautique d'un coup d'oeil ! - Copyright ORBIFLY Décembre 2007 - Disclaimer

ORBIFLY MET'MAP TEAM :

Programmation & Développement : Alexandra Zaïnal
Sur une idée originale de : Baudouin d'Aumeries
Assistance à la programmation : Marc-Olivier Méhu
Soutien technique & logistique : Manuel Goepfert

Contact : metmap@orbifly.com




SOURCES & CREDITS :

   NOAA